sensor_id;sensor_type;location;lat;lon;timestamp;pressure;altitude;pressure_sealevel;temperature;humidity
13050;BME280;6591;51.446;5.404;2023-10-09T00:02:11;101742.13;;;20.61;54.51
13050;BME280;6591;51.446;5.404;2023-10-09T00:04:39;101738.84;;;20.69;54.31
13050;BME280;6591;51.446;5.404;2023-10-09T00:07:10;101742.81;;;20.76;54.81
13050;BME280;6591;51.446;5.404;2023-10-09T00:09:38;101731.56;;;20.82;54.35
13050;BME280;6591;51.446;5.404;2023-10-09T00:12:19;101729.41;;;20.87;54.61
13050;BME280;6591;51.446;5.404;2023-10-09T00:14:52;101733.34;;;20.94;54.41
13050;BME280;6591;51.446;5.404;2023-10-09T00:17:23;101728.97;;;21.04;54.39
13050;BME280;6591;51.446;5.404;2023-10-09T00:19:51;101725.81;;;21.10;54.64
13050;BME280;6591;51.446;5.404;2023-10-09T00:22:19;101723.56;;;21.17;54.57
13050;BME280;6591;51.446;5.404;2023-10-09T00:24:58;101708.84;;;21.21;54.67
13050;BME280;6591;51.446;5.404;2023-10-09T00:27:43;101697.69;;;21.26;54.66
13050;BME280;6591;51.446;5.404;2023-10-09T00:30:16;101715.25;;;21.31;54.62
13050;BME280;6591;51.446;5.404;2023-10-09T00:32:49;101706.81;;;21.36;54.82
13050;BME280;6591;51.446;5.404;2023-10-09T00:35:30;101715.41;;;21.41;54.67
13050;BME280;6591;51.446;5.404;2023-10-09T00:38:05;101718.63;;;21.46;54.66
13050;BME280;6591;51.446;5.404;2023-10-09T00:40:51;101706.63;;;21.50;54.30
13050;BME280;6591;51.446;5.404;2023-10-09T00:43:37;101693.47;;;21.56;54.07
13050;BME280;6591;51.446;5.404;2023-10-09T00:46:07;101679.84;;;21.58;54.15
13050;BME280;6591;51.446;5.404;2023-10-09T00:49:01;101694.34;;;21.57;54.66
13050;BME280;6591;51.446;5.404;2023-10-09T00:51:30;101681.31;;;21.62;54.07
13050;BME280;6591;51.446;5.404;2023-10-09T00:54:07;101680.34;;;21.63;54.25
13050;BME280;6591;51.446;5.404;2023-10-09T00:56:37;101671.00;;;21.67;54.18
13050;BME280;6591;51.446;5.404;2023-10-09T00:59:16;101674.47;;;21.69;54.16
13050;BME280;6591;51.446;5.404;2023-10-09T01:01:47;101696.59;;;21.74;53.81
13050;BME280;6591;51.446;5.404;2023-10-09T01:04:24;101690.22;;;21.75;54.26
13050;BME280;6591;51.446;5.404;2023-10-09T01:06:57;101699.03;;;21.77;53.93
13050;BME280;6591;51.446;5.404;2023-10-09T01:09:57;101707.91;;;21.79;54.00
13050;BME280;6591;51.446;5.404;2023-10-09T01:12:26;101686.16;;;21.81;54.17
13050;BME280;6591;51.446;5.404;2023-10-09T01:14:55;101691.31;;;21.84;53.86
13050;BME280;6591;51.446;5.404;2023-10-09T01:17:26;101696.63;;;21.85;53.68
13050;BME280;6591;51.446;5.404;2023-10-09T01:20:03;101691.09;;;21.87;53.82
13050;BME280;6591;51.446;5.404;2023-10-09T01:22:32;101684.66;;;21.88;54.05
13050;BME280;6591;51.446;5.404;2023-10-09T01:24:59;101689.97;;;21.89;53.87
13050;BME280;6591;51.446;5.404;2023-10-09T01:27:26;101691.69;;;21.90;53.87
13050;BME280;6591;51.446;5.404;2023-10-09T01:29:59;101693.44;;;21.91;53.43
13050;BME280;6591;51.446;5.404;2023-10-09T01:32:27;101695.16;;;21.92;53.74
13050;BME280;6591;51.446;5.404;2023-10-09T01:34:57;101701.31;;;21.94;53.85
13050;BME280;6591;51.446;5.404;2023-10-09T01:37:25;101694.06;;;21.95;53.89
13050;BME280;6591;51.446;5.404;2023-10-09T01:39:59;101704.03;;;21.94;53.64
13050;BME280;6591;51.446;5.404;2023-10-09T01:42:27;101702.06;;;21.96;53.80
13050;BME280;6591;51.446;5.404;2023-10-09T01:44:57;101696.56;;;21.98;53.59
13050;BME280;6591;51.446;5.404;2023-10-09T01:47:38;101695.53;;;21.99;53.65
13050;BME280;6591;51.446;5.404;2023-10-09T01:50:07;101686.34;;;22.02;53.69
13050;BME280;6591;51.446;5.404;2023-10-09T01:52:46;101696.19;;;22.03;53.79
13050;BME280;6591;51.446;5.404;2023-10-09T01:55:17;101690.78;;;22.03;53.73
13050;BME280;6591;51.446;5.404;2023-10-09T01:58:04;101679.94;;;22.03;53.77
13050;BME280;6591;51.446;5.404;2023-10-09T02:00:43;101688.78;;;22.05;53.27
13050;BME280;6591;51.446;5.404;2023-10-09T02:03:24;101690.50;;;22.06;53.53
13050;BME280;6591;51.446;5.404;2023-10-09T02:05:54;101684.13;;;22.07;53.76
13050;BME280;6591;51.446;5.404;2023-10-09T02:08:44;101684.00;;;22.08;53.24
13050;BME280;6591;51.446;5.404;2023-10-09T02:11:17;101686.56;;;22.10;53.27
13050;BME280;6591;51.446;5.404;2023-10-09T02:13:51;101687.44;;;22.10;53.58
13050;BME280;6591;51.446;5.404;2023-10-09T02:16:28;101691.00;;;22.11;53.47
13050;BME280;6591;51.446;5.404;2023-10-09T02:18:56;101681.91;;;22.12;53.25
13050;BME280;6591;51.446;5.404;2023-10-09T02:21:25;101685.59;;;22.11;53.46
13050;BME280;6591;51.446;5.404;2023-10-09T02:24:14;101680.94;;;22.13;53.43
13050;BME280;6591;51.446;5.404;2023-10-09T02:26:55;101679.94;;;22.14;53.16
13050;BME280;6591;51.446;5.404;2023-10-09T02:29:24;101680.94;;;22.13;53.47
13050;BME280;6591;51.446;5.404;2023-10-09T02:31:51;101675.38;;;22.14;53.17
13050;BME280;6591;51.446;5.404;2023-10-09T02:34:19;101691.50;;;22.16;52.99
13050;BME280;6591;51.446;5.404;2023-10-09T02:36:50;101669.84;;;22.16;53.01
13050;BME280;6591;51.446;5.404;2023-10-09T02:39:25;101654.47;;;22.16;53.25
13050;BME280;6591;51.446;5.404;2023-10-09T02:41:55;101649.19;;;22.15;53.39
13050;BME280;6591;51.446;5.404;2023-10-09T02:44:28;101647.22;;;22.17;53.01
13050;BME280;6591;51.446;5.404;2023-10-09T02:46:59;101648.19;;;22.16;53.26
13050;BME280;6591;51.446;5.404;2023-10-09T02:49:26;101642.78;;;22.16;52.94
13050;BME280;6591;51.446;5.404;2023-10-09T02:51:54;101642.78;;;22.16;53.32
13050;BME280;6591;51.446;5.404;2023-10-09T02:54:21;101641.06;;;22.15;52.78
13050;BME280;6591;51.446;5.404;2023-10-09T02:56:50;101649.19;;;22.15;52.98
13050;BME280;6591;51.446;5.404;2023-10-09T02:59:35;101646.75;;;22.12;53.01
13050;BME280;6591;51.446;5.404;2023-10-09T03:02:08;101642.31;;;22.11;52.78
13050;BME280;6591;51.446;5.404;2023-10-09T03:04:35;101644.16;;;22.10;53.10
13050;BME280;6591;51.446;5.404;2023-10-09T03:07:05;101646.97;;;22.09;53.14
13050;BME280;6591;51.446;5.404;2023-10-09T03:09:32;101643.28;;;22.10;53.27
13050;BME280;6591;51.446;5.404;2023-10-09T03:12:03;101663.19;;;22.09;53.23
13050;BME280;6591;51.446;5.404;2023-10-09T03:14:33;101657.78;;;22.09;53.21
13050;BME280;6591;51.446;5.404;2023-10-09T03:17:03;101654.25;;;22.08;53.29
13050;BME280;6591;51.446;5.404;2023-10-09T03:19:32;101654.38;;;22.07;53.40
13050;BME280;6591;51.446;5.404;2023-10-09T03:22:06;101656.19;;;22.06;53.53
13050;BME280;6591;51.446;5.404;2023-10-09T03:24:41;101644.63;;;22.04;53.21
13050;BME280;6591;51.446;5.404;2023-10-09T03:27:18;101645.50;;;22.05;53.36
13050;BME280;6591;51.446;5.404;2023-10-09T03:29:45;101632.94;;;22.04;53.39
13050;BME280;6591;51.446;5.404;2023-10-09T03:32:17;101632.94;;;22.04;52.80
13050;BME280;6591;51.446;5.404;2023-10-09T03:34:46;101621.28;;;22.03;53.19
13050;BME280;6591;51.446;5.404;2023-10-09T03:37:16;101624.13;;;22.02;52.92
13050;BME280;6591;51.446;5.404;2023-10-09T03:40:04;101617.25;;;21.98;52.92
13050;BME280;6591;51.446;5.404;2023-10-09T03:42:35;101616.38;;;21.97;53.04
13050;BME280;6591;51.446;5.404;2023-10-09T03:45:05;101611.09;;;21.95;52.87
13050;BME280;6591;51.446;5.404;2023-10-09T03:47:40;101603.94;;;21.94;52.81
13050;BME280;6591;51.446;5.404;2023-10-09T03:50:15;101609.34;;;21.94;52.68
13050;BME280;6591;51.446;5.404;2023-10-09T03:53:04;101612.16;;;21.93;53.24
13050;BME280;6591;51.446;5.404;2023-10-09T03:55:36;101614.84;;;21.93;53.09
13050;BME280;6591;51.446;5.404;2023-10-09T03:58:07;101611.19;;;21.94;53.24
13050;BME280;6591;51.446;5.404;2023-10-09T04:00:35;101605.78;;;21.94;53.22
13050;BME280;6591;51.446;5.404;2023-10-09T04:03:13;101606.66;;;21.94;52.92
13050;BME280;6591;51.446;5.404;2023-10-09T04:05:42;101605.66;;;21.95;52.87
13050;BME280;6591;51.446;5.404;2023-10-09T04:08:11;101605.56;;;21.97;53.08
13050;BME280;6591;51.446;5.404;2023-10-09T04:10:48;101614.66;;;21.96;53.16
13050;BME280;6591;51.446;5.404;2023-10-09T04:13:22;101622.75;;;21.96;53.29
13050;BME280;6591;51.446;5.404;2023-10-09T04:15:50;101616.50;;;21.95;53.25
13050;BME280;6591;51.446;5.404;2023-10-09T04:18:20;101617.47;;;21.94;53.21
13050;BME280;6591;51.446;5.404;2023-10-09T04:20:55;101627.19;;;21.97;53.18
13050;BME280;6591;51.446;5.404;2023-10-09T04:24:06;101615.00;;;21.91;53.36
13050;BME280;6591;51.446;5.404;2023-10-09T04:26:44;101607.59;;;21.93;53.15
13050;BME280;6591;51.446;5.404;2023-10-09T04:29:14;101609.44;;;21.93;53.27
13050;BME280;6591;51.446;5.404;2023-10-09T04:31:50;101592.25;;;21.94;53.10
13050;BME280;6591;51.446;5.404;2023-10-09T04:34:25;101589.66;;;21.92;52.88
13050;BME280;6591;51.446;5.404;2023-10-09T04:36:57;101590.66;;;21.91;53.08
13050;BME280;6591;51.446;5.404;2023-10-09T04:39:28;101596.06;;;21.91;53.20
13050;BME280;6591;51.446;5.404;2023-10-09T04:41:58;101615.09;;;21.90;53.06
13050;BME280;6591;51.446;5.404;2023-10-09T04:44:45;101632.47;;;21.87;53.26
13050;BME280;6591;51.446;5.404;2023-10-09T04:47:36;101634.66;;;21.82;53.56
13050;BME280;6591;51.446;5.404;2023-10-09T04:50:08;101636.25;;;21.85;53.60
13050;BME280;6591;51.446;5.404;2023-10-09T04:52:38;101636.25;;;21.85;53.40
13050;BME280;6591;51.446;5.404;2023-10-09T04:55:07;101642.63;;;21.84;52.90
13050;BME280;6591;51.446;5.404;2023-10-09T04:57:41;101646.31;;;21.83;53.08
13050;BME280;6591;51.446;5.404;2023-10-09T05:00:16;101638.34;;;21.81;53.50
13050;BME280;6591;51.446;5.404;2023-10-09T05:03:11;101629.00;;;21.85;53.04
13050;BME280;6591;51.446;5.404;2023-10-09T05:05:40;101619.16;;;21.84;53.42
13050;BME280;6591;51.446;5.404;2023-10-09T05:08:18;101620.13;;;21.83;53.23
13050;BME280;6591;51.446;5.404;2023-10-09T05:11:04;101626.66;;;21.81;53.27
13050;BME280;6591;51.446;5.404;2023-10-09T05:13:37;101624.69;;;21.83;52.91
13050;BME280;6591;51.446;5.404;2023-10-09T05:16:17;101609.59;;;21.80;53.15
13050;BME280;6591;51.446;5.404;2023-10-09T05:19:00;101621.16;;;21.82;53.48
13050;BME280;6591;51.446;5.404;2023-10-09T05:21:39;101630.25;;;21.81;53.51
13050;BME280;6591;51.446;5.404;2023-10-09T05:24:11;101633.66;;;21.83;53.22
13050;BME280;6591;51.446;5.404;2023-10-09T05:26:41;101628.25;;;21.83;53.30
13050;BME280;6591;51.446;5.404;2023-10-09T05:29:24;101644.47;;;21.83;53.49
13050;BME280;6591;51.446;5.404;2023-10-09T05:32:05;101640.56;;;21.87;53.83
13050;BME280;6591;51.446;5.404;2023-10-09T05:34:44;101642.25;;;21.88;53.50
13050;BME280;6591;51.446;5.404;2023-10-09T05:37:43;101640.41;;;21.89;53.52
13050;BME280;6591;51.446;5.404;2023-10-09T05:40:13;101655.56;;;21.91;53.54
13050;BME280;6591;51.446;5.404;2023-10-09T05:42:43;101658.03;;;21.94;53.33
13050;BME280;6591;51.446;5.404;2023-10-09T05:45:15;101662.47;;;21.95;53.52
13050;BME280;6591;51.446;5.404;2023-10-09T05:48:02;101669.63;;;21.96;53.73
13050;BME280;6591;51.446;5.404;2023-10-09T05:50:44;101673.78;;;22.01;53.81
13050;BME280;6591;51.446;5.404;2023-10-09T05:53:17;101661.00;;;22.03;53.69
13050;BME280;6591;51.446;5.404;2023-10-09T05:56:04;101665.19;;;22.07;53.44
13050;BME280;6591;51.446;5.404;2023-10-09T05:59:09;101666.91;;;22.08;53.74
13050;BME280;6591;51.446;5.404;2023-10-09T06:01:55;101667.78;;;22.08;53.39
13050;BME280;6591;51.446;5.404;2023-10-09T06:04:34;101677.47;;;22.11;53.29
13050;BME280;6591;51.446;5.404;2023-10-09T06:07:21;101681.91;;;22.12;53.41
13050;BME280;6591;51.446;5.404;2023-10-09T06:10:08;101688.91;;;22.14;53.47
13050;BME280;6591;51.446;5.404;2023-10-09T06:12:55;101696.69;;;22.19;53.89
13050;BME280;6591;51.446;5.404;2023-10-09T06:15:37;101701.94;;;22.20;53.54
13050;BME280;6591;51.446;5.404;2023-10-09T06:18:36;101694.56;;;22.22;53.45
13050;BME280;6591;51.446;5.404;2023-10-09T06:21:10;101696.16;;;22.25;53.67
13050;BME280;6591;51.446;5.404;2023-10-09T06:23:57;101684.34;;;22.26;53.70
13050;BME280;6591;51.446;5.404;2023-10-09T06:26:44;101690.50;;;22.28;53.84
13050;BME280;6591;51.446;5.404;2023-10-09T06:29:30;101677.84;;;22.28;53.34
13050;BME280;6591;51.446;5.404;2023-10-09T06:32:06;101679.31;;;22.32;53.09
13050;BME280;6591;51.446;5.404;2023-10-09T06:34:53;101670.22;;;22.33;53.50
13050;BME280;6591;51.446;5.404;2023-10-09T06:37:25;101670.94;;;22.35;53.16
13050;BME280;6591;51.446;5.404;2023-10-09T06:39:55;101668.09;;;22.37;53.53
13050;BME280;6591;51.446;5.404;2023-10-09T06:42:28;101668.97;;;22.37;53.11
13050;BME280;6591;51.446;5.404;2023-10-09T06:45:15;101680.53;;;22.39;53.39
13050;BME280;6591;51.446;5.404;2023-10-09T06:47:50;101694.69;;;22.43;53.19
13050;BME280;6591;51.446;5.404;2023-10-09T06:50:23;101697.13;;;22.46;53.42
13050;BME280;6591;51.446;5.404;2023-10-09T06:53:14;101692.47;;;22.48;53.62
13050;BME280;6591;51.446;5.404;2023-10-09T06:55:43;101679.66;;;22.50;53.20
13050;BME280;6591;51.446;5.404;2023-10-09T06:58:21;101686.66;;;22.53;53.37
13050;BME280;6591;51.446;5.404;2023-10-09T07:00:55;101679.41;;;22.53;53.55
13050;BME280;6591;51.446;5.404;2023-10-09T07:03:28;101678.16;;;22.57;53.21
13050;BME280;6591;51.446;5.404;2023-10-09T07:06:09;101670.03;;;22.57;53.09
13050;BME280;6591;51.446;5.404;2023-10-09T07:08:55;101666.94;;;22.62;53.19
13050;BME280;6591;51.446;5.404;2023-10-09T07:11:42;101655.00;;;22.64;53.59
13050;BME280;6591;51.446;5.404;2023-10-09T07:14:18;101648.97;;;22.72;53.21
13050;BME280;6591;51.446;5.404;2023-10-09T07:17:05;101638.03;;;22.73;53.67
13050;BME280;6591;51.446;5.404;2023-10-09T07:19:54;101635.56;;;22.82;53.27
13050;BME280;6591;51.446;5.404;2023-10-09T07:22:22;101625.19;;;22.87;53.37
13050;BME280;6591;51.446;5.404;2023-10-09T07:24:52;101617.53;;;22.92;53.70
13050;BME280;6591;51.446;5.404;2023-10-09T07:27:40;101608.84;;;22.98;53.83
13050;BME280;6591;51.446;5.404;2023-10-09T07:30:20;101632.13;;;23.00;53.24
13050;BME280;6591;51.446;5.404;2023-10-09T07:33:05;101629.91;;;23.05;53.17
13050;BME280;6591;51.446;5.404;2023-10-09T07:35:44;101639.47;;;23.09;52.95
13050;BME280;6591;51.446;5.404;2023-10-09T07:38:24;101655.50;;;23.12;53.14
13050;BME280;6591;51.446;5.404;2023-10-09T07:41:03;101675.78;;;23.18;52.85
13050;BME280;6591;51.446;5.404;2023-10-09T07:43:36;101690.06;;;23.20;52.87
13050;BME280;6591;51.446;5.404;2023-10-09T07:46:08;101708.78;;;23.23;52.42
13050;BME280;6591;51.446;5.404;2023-10-09T07:49:04;101714.31;;;23.21;52.76
13050;BME280;6591;51.446;5.404;2023-10-09T07:51:40;101711.22;;;23.26;53.11
13050;BME280;6591;51.446;5.404;2023-10-09T07:54:11;101722.66;;;23.30;52.77
13050;BME280;6591;51.446;5.404;2023-10-09T07:56:43;101720.56;;;23.33;52.72
13050;BME280;6591;51.446;5.404;2023-10-09T07:59:15;101704.03;;;23.36;52.56
13050;BME280;6591;51.446;5.404;2023-10-09T08:01:50;101689.38;;;23.39;52.54
13050;BME280;6591;51.446;5.404;2023-10-09T08:04:23;101670.00;;;23.43;52.46
13050;BME280;6591;51.446;5.404;2023-10-09T08:07:08;101668.13;;;23.44;52.49
13050;BME280;6591;51.446;5.404;2023-10-09T08:10:04;101667.78;;;23.48;52.36
13050;BME280;6591;51.446;5.404;2023-10-09T08:12:44;101673.78;;;23.52;52.55
13050;BME280;6591;51.446;5.404;2023-10-09T08:15:18;101686.81;;;23.58;52.66
13050;BME280;6591;51.446;5.404;2023-10-09T08:17:56;101692.97;;;23.60;52.59
13050;BME280;6591;51.446;5.404;2023-10-09T08:20:27;101689.56;;;23.68;52.48
13050;BME280;6591;51.446;5.404;2023-10-09T08:22:56;101687.09;;;23.76;52.59
13050;BME280;6591;51.446;5.404;2023-10-09T08:25:25;101685.69;;;23.81;52.40
13050;BME280;6591;51.446;5.404;2023-10-09T08:27:59;101695.84;;;23.89;52.33
13050;BME280;6591;51.446;5.404;2023-10-09T08:30:59;101695.03;;;23.98;52.59
13050;BME280;6591;51.446;5.404;2023-10-09T08:33:46;101707.53;;;24.10;52.42
13050;BME280;6591;51.446;5.404;2023-10-09T08:36:27;101691.19;;;24.21;52.60
13050;BME280;6591;51.446;5.404;2023-10-09T08:39:21;101690.66;;;24.37;52.42
13050;BME280;6591;51.446;5.404;2023-10-09T08:42:00;101681.56;;;24.47;52.11
13050;BME280;6591;51.446;5.404;2023-10-09T08:44:31;101687.75;;;24.59;51.98
13050;BME280;6591;51.446;5.404;2023-10-09T08:47:01;101683.03;;;24.71;51.94
13050;BME280;6591;51.446;5.404;2023-10-09T08:49:28;101677.75;;;24.79;51.55
13050;BME280;6591;51.446;5.404;2023-10-09T08:52:00;101685.81;;;24.90;51.69
13050;BME280;6591;51.446;5.404;2023-10-09T08:54:30;101669.78;;;24.97;51.82
13050;BME280;6591;51.446;5.404;2023-10-09T08:57:00;101675.53;;;25.03;51.48
13050;BME280;6591;51.446;5.404;2023-10-09T08:59:29;101676.69;;;25.10;51.52
13050;BME280;6591;51.446;5.404;2023-10-09T09:01:57;101675.13;;;25.17;50.87
13050;BME280;6591;51.446;5.404;2023-10-09T09:04:40;101671.78;;;25.23;51.17
13050;BME280;6591;51.446;5.404;2023-10-09T09:07:34;101666.78;;;25.28;51.04
13050;BME280;6591;51.446;5.404;2023-10-09T09:10:07;101669.78;;;25.45;51.04
13050;BME280;6591;51.446;5.404;2023-10-09T09:12:50;101667.78;;;25.56;51.14
13050;BME280;6591;51.446;5.404;2023-10-09T09:15:30;101672.94;;;25.69;51.00
13050;BME280;6591;51.446;5.404;2023-10-09T09:18:06;101659.16;;;25.80;50.81
13050;BME280;6591;51.446;5.404;2023-10-09T09:20:36;101665.84;;;25.95;50.69
13050;BME280;6591;51.446;5.404;2023-10-09T09:23:10;101671.09;;;26.06;50.13
13050;BME280;6591;51.446;5.404;2023-10-09T09:25:45;101667.28;;;26.17;49.58
13050;BME280;6591;51.446;5.404;2023-10-09T09:28:15;101671.44;;;26.31;49.96
13050;BME280;6591;51.446;5.404;2023-10-09T09:30:49;101684.84;;;26.42;49.74
13050;BME280;6591;51.446;5.404;2023-10-09T09:33:24;101692.97;;;26.51;49.69
13050;BME280;6591;51.446;5.404;2023-10-09T09:36:07;101706.94;;;26.66;49.54
13050;BME280;6591;51.446;5.404;2023-10-09T09:38:35;101714.91;;;26.77;48.91
13050;BME280;6591;51.446;5.404;2023-10-09T09:41:25;101708.84;;;26.83;48.72
13050;BME280;6591;51.446;5.404;2023-10-09T09:43:57;101714.41;;;26.91;48.43
13050;BME280;6591;51.446;5.404;2023-10-09T09:46:34;101715.66;;;26.97;48.48
13050;BME280;6591;51.446;5.404;2023-10-09T09:49:04;101710.78;;;27.01;47.97
13050;BME280;6591;51.446;5.404;2023-10-09T09:51:44;101723.22;;;27.03;48.41
13050;BME280;6591;51.446;5.404;2023-10-09T09:54:15;101728.38;;;27.06;47.94
13050;BME280;6591;51.446;5.404;2023-10-09T09:56:46;101728.69;;;27.03;47.72
13050;BME280;6591;51.446;5.404;2023-10-09T09:59:19;101738.72;;;27.03;47.78
13050;BME280;6591;51.446;5.404;2023-10-09T10:01:58;101719.97;;;27.00;47.59
13050;BME280;6591;51.446;5.404;2023-10-09T10:04:39;101724.41;;;27.01;47.78
13050;BME280;6591;51.446;5.404;2023-10-09T10:07:10;101726.81;;;27.04;47.82
13050;BME280;6591;51.446;5.404;2023-10-09T10:09:42;101729.22;;;27.07;47.17
13050;BME280;6591;51.446;5.404;2023-10-09T10:12:13;101735.72;;;27.06;47.65
13050;BME280;6591;51.446;5.404;2023-10-09T10:15:02;101748.63;;;27.04;47.28
13050;BME280;6591;51.446;5.404;2023-10-09T10:20:30;101743.56;;;27.09;47.10
13050;BME280;6591;51.446;5.404;2023-10-09T10:23:16;101727.75;;;27.12;47.51
13050;BME280;6591;51.446;5.404;2023-10-09T10:25:53;101731.25;;;27.22;47.58
13050;BME280;6591;51.446;5.404;2023-10-09T10:28:27;101736.94;;;27.29;47.26
13050;BME280;6591;51.446;5.404;2023-10-09T10:31:11;101734.47;;;27.35;47.17
13050;BME280;6591;51.446;5.404;2023-10-09T10:36:24;101731.31;;;27.48;46.77
13050;BME280;6591;51.446;5.404;2023-10-09T10:39:06;101743.38;;;27.55;46.67
13050;BME280;6591;51.446;5.404;2023-10-09T10:41:58;101740.00;;;27.61;46.39
13050;BME280;6591;51.446;5.404;2023-10-09T10:44:33;101734.44;;;27.71;46.84
13050;BME280;6591;51.446;5.404;2023-10-09T10:47:02;101732.25;;;27.74;46.73
13050;BME280;6591;51.446;5.404;2023-10-09T10:49:34;101727.34;;;27.78;46.64
13050;BME280;6591;51.446;5.404;2023-10-09T10:52:05;101728.59;;;27.84;46.50
13050;BME280;6591;51.446;5.404;2023-10-09T10:54:44;101725.03;;;27.91;46.72
13050;BME280;6591;51.446;5.404;2023-10-09T10:57:21;101729.00;;;27.97;46.10
13050;BME280;6591;51.446;5.404;2023-10-09T11:00:11;101721.50;;;27.99;46.30
13050;BME280;6591;51.446;5.404;2023-10-09T11:02:57;101734.03;;;28.09;46.43
13050;BME280;6591;51.446;5.404;2023-10-09T11:05:43;101740.97;;;28.21;45.71
13050;BME280;6591;51.446;5.404;2023-10-09T11:08:19;101722.06;;;28.28;45.71
13050;BME280;6591;51.446;5.404;2023-10-09T11:10:51;101723.44;;;28.32;45.51
13050;BME280;6591;51.446;5.404;2023-10-09T11:13:24;101727.56;;;28.36;46.08
13050;BME280;6591;51.446;5.404;2023-10-09T11:15:58;101734.25;;;28.42;45.54
13050;BME280;6591;51.446;5.404;2023-10-09T11:18:42;101739.38;;;28.45;45.06
13050;BME280;6591;51.446;5.404;2023-10-09T11:21:16;101739.53;;;28.43;45.37
13050;BME280;6591;51.446;5.404;2023-10-09T11:23:44;101737.50;;;28.45;44.91
13050;BME280;6591;51.446;5.404;2023-10-09T11:26:26;101734.28;;;28.50;45.01
13050;BME280;6591;51.446;5.404;2023-10-09T11:29:11;101732.56;;;28.49;45.08
13050;BME280;6591;51.446;5.404;2023-10-09T11:32:04;101735.84;;;28.52;45.43
13050;BME280;6591;51.446;5.404;2023-10-09T11:35:09;101730.75;;;28.57;45.01
13050;BME280;6591;51.446;5.404;2023-10-09T11:37:37;101737.44;;;28.71;45.48
13050;BME280;6591;51.446;5.404;2023-10-09T11:40:33;101724.16;;;28.76;45.09
13050;BME280;6591;51.446;5.404;2023-10-09T11:43:52;101727.78;;;28.85;44.91
13050;BME280;6591;51.446;5.404;2023-10-09T11:46:22;101717.53;;;28.95;44.67
13050;BME280;6591;51.446;5.404;2023-10-09T11:49:24;101725.06;;;29.01;45.16
13050;BME280;6591;51.446;5.404;2023-10-09T11:52:11;101726.44;;;29.05;44.66
13050;BME280;6591;51.446;5.404;2023-10-09T11:54:41;101718.59;;;29.10;44.73
13050;BME280;6591;51.446;5.404;2023-10-09T11:57:11;101720.50;;;29.18;44.70
13050;BME280;6591;51.446;5.404;2023-10-09T11:59:38;101719.13;;;29.22;44.35
13050;BME280;6591;51.446;5.404;2023-10-09T12:02:09;101715.22;;;29.24;43.97
13050;BME280;6591;51.446;5.404;2023-10-09T12:04:40;101718.81;;;29.25;43.85
13050;BME280;6591;51.446;5.404;2023-10-09T12:07:13;101727.88;;;29.25;43.97
13050;BME280;6591;51.446;5.404;2023-10-09T12:09:40;101720.50;;;29.26;43.78
13050;BME280;6591;51.446;5.404;2023-10-09T12:12:08;101726.81;;;29.26;43.38
13050;BME280;6591;51.446;5.404;2023-10-09T12:14:36;101724.28;;;29.25;43.70
13050;BME280;6591;51.446;5.404;2023-10-09T12:17:07;101727.16;;;29.23;43.59
13050;BME280;6591;51.446;5.404;2023-10-09T12:19:39;101722.06;;;29.20;43.51
13050;BME280;6591;51.446;5.404;2023-10-09T12:22:08;101735.19;;;29.17;43.40
13050;BME280;6591;51.446;5.404;2023-10-09T12:24:43;101721.88;;;29.14;43.53
13050;BME280;6591;51.446;5.404;2023-10-09T12:27:10;101712.78;;;29.13;43.83
13050;BME280;6591;51.446;5.404;2023-10-09T12:29:38;101711.59;;;29.16;43.47
13050;BME280;6591;51.446;5.404;2023-10-09T12:32:13;101710.41;;;29.18;43.39
13050;BME280;6591;51.446;5.404;2023-10-09T12:34:40;101705.63;;;29.20;43.47
13050;BME280;6591;51.446;5.404;2023-10-09T12:37:09;101709.03;;;29.22;43.57
13050;BME280;6591;51.446;5.404;2023-10-09T12:39:36;101709.53;;;29.26;43.42
13050;BME280;6591;51.446;5.404;2023-10-09T12:42:07;101711.44;;;29.25;43.38
13050;BME280;6591;51.446;5.404;2023-10-09T12:44:36;101712.28;;;29.26;43.11
13050;BME280;6591;51.446;5.404;2023-10-09T12:47:07;101705.28;;;29.23;42.96
13050;BME280;6591;51.446;5.404;2023-10-09T12:49:34;101711.78;;;29.22;43.16
13050;BME280;6591;51.446;5.404;2023-10-09T12:52:01;101703.91;;;29.19;43.33
13050;BME280;6591;51.446;5.404;2023-10-09T12:54:28;101701.84;;;29.21;43.23
13050;BME280;6591;51.446;5.404;2023-10-09T12:56:56;101692.78;;;29.21;43.33
13050;BME280;6591;51.446;5.404;2023-10-09T12:59:25;101695.34;;;29.22;43.35
13050;BME280;6591;51.446;5.404;2023-10-09T13:01:52;101689.72;;;29.24;43.27
13050;BME280;6591;51.446;5.404;2023-10-09T13:04:20;101683.22;;;29.25;43.00
13050;BME280;6591;51.446;5.404;2023-10-09T13:06:51;101669.53;;;29.25;43.06
13050;BME280;6591;51.446;5.404;2023-10-09T13:09:21;101667.31;;;29.28;43.17
13050;BME280;6591;51.446;5.404;2023-10-09T13:12:14;101663.56;;;29.37;43.32
13050;BME280;6591;51.446;5.404;2023-10-09T13:14:46;101666.63;;;29.42;42.96
13050;BME280;6591;51.446;5.404;2023-10-09T13:17:17;101662.56;;;29.46;43.14
13050;BME280;6591;51.446;5.404;2023-10-09T13:19:45;101658.25;;;29.52;43.15
13050;BME280;6591;51.446;5.404;2023-10-09T13:22:12;101671.09;;;29.60;43.29
13050;BME280;6591;51.446;5.404;2023-10-09T13:24:40;101665.25;;;29.63;42.47
13050;BME280;6591;51.446;5.404;2023-10-09T13:27:09;101664.56;;;29.69;42.49
13050;BME280;6591;51.446;5.404;2023-10-09T13:29:37;101655.16;;;29.71;42.60
13050;BME280;6591;51.446;5.404;2023-10-09T13:32:08;101669.50;;;29.73;42.32
13050;BME280;6591;51.446;5.404;2023-10-09T13:34:42;101669.19;;;29.76;42.41
13050;BME280;6591;51.446;5.404;2023-10-09T13:37:11;101672.78;;;29.77;42.39
13050;BME280;6591;51.446;5.404;2023-10-09T13:39:41;101674.50;;;29.78;42.45
13050;BME280;6591;51.446;5.404;2023-10-09T13:42:19;101676.88;;;29.81;42.57
13050;BME280;6591;51.446;5.404;2023-10-09T13:44:52;101676.00;;;29.80;42.13
13050;BME280;6591;51.446;5.404;2023-10-09T13:47:23;101666.59;;;29.83;42.06
13050;BME280;6591;51.446;5.404;2023-10-09T13:49:56;101664.03;;;29.89;41.89
13050;BME280;6591;51.446;5.404;2023-10-09T13:52:25;101678.06;;;29.95;42.24